Norbank — PGIS — position and weather

sailwx.info

Track history (hours):
 
Tides and Currents Weather Stations Pressure Air Temp Water Temp Dewpoint Dewpoint Depression Visibility Wind Speed Wind Dir Waves Ship Positions

Norbank

Operator: P & O Ferries

Last reported at 2017-Jan-23 03:33 UTC. Time now 2017-Jan-23 04:26 UTC.
Position N 53°31' W 003°33'.

Length 167 m; draft 5.8 m.

Type: Ship (hazmat cat A). MMSI: 246213000.

Date/timePositionNaut miles runAvg speedWind from/ knotsBaromVisibWave heightAir tempDewpointWater temp
2017-Jan-23 03:33N 53°31' W 003°33'1414.0
2017-Jan-23 02:34N 53°33' W 003°56'1514.1
2017-Jan-23 01:27N 53°35' W 004°22'5714.7
2017-Jan-22 21:34N 53°22' W 005°56'7 0.5
2017-Jan-22 05:33N 53°21' W 006°08'8814.7
2017-Jan-21 23:33N 53°34' W 003°42'1717.1
2017-Jan-21 22:33N 53°31' W 003°13'8 8.4
2017-Jan-21 21:33N 53°27' W 003°01'0 0.4
2017-Jan-21 20:31N 53°27' W 003°01'0 0.0
2017-Jan-21 19:27N 53°27' W 003°01'0 0.0
2017-Jan-21 18:33N 53°27' W 003°01'1 0.6
2017-Jan-21 17:33N 53°27' W 003°01'8 8.2
2017-Jan-21 16:33N 53°31' W 003°13'1413.7
2017-Jan-21 15:33N 53°31' W 003°36'1514.8
2017-Jan-21 14:33N 53°33' W 004°00'15 0.9
2017-Jan-20 22:33N 53°33' W 003°36'1817.6
2017-Jan-20 21:33N 53°31' W 003°07'5 4.9
2017-Jan-20 20:33N 53°27' W 003°01'0 0.1
2017-Jan-20 19:33N 53°27' W 003°01'0 0.0
2017-Jan-20 18:30N 53°27' W 003°01'0 0.0
2017-Jan-20 17:33N 53°27' W 003°01'0 0.1
2017-Jan-20 16:33N 53°27' W 003°01'6 6.3
2017-Jan-20 15:33N 53°32' W 003°09'1919.4
2017-Jan-20 14:33N 53°31' W 003°41'1919.3
2017-Jan-20 13:33N 53°35' W 004°13'2019.6
2017-Jan-20 12:33N 53°36' W 004°46'1919.3
2017-Jan-20 11:33N 53°30' W 005°17'2218.7
2017-Jan-20 10:22N 53°23' W 005°53'7 1.1
2017-Jan-20 04:31N 53°21' W 006°03'1515.6
2017-Jan-20 03:32N 53°26' W 005°39'1715.7
2017-Jan-20 02:29N 53°31' W 005°13'1516.4
2017-Jan-20 01:33N 53°36' W 004°48'1717.2
2017-Jan-20 00:33N 53°38' W 004°20'1818.2
2017-Jan-19 23:33N 53°36' W 003°49'1918.7
2017-Jan-19 22:33N 53°32' W 003°18'1111.5
2017-Jan-19 21:33N 53°27' W 003°01'0 0.4
2017-Jan-19 20:33N 53°27' W 003°01'0 0.0
2017-Jan-19 19:31N 53°27' W 003°01'0 0.0
2017-Jan-19 18:31N 53°27' W 003°01'0 0.0
2017-Jan-19 17:33N 53°27' W 003°01'0 0.4
2017-Jan-19 16:33N 53°27' W 003°01'7 6.9
2017-Jan-19 15:33N 53°32' W 003°09'1919.4
2017-Jan-19 14:33N 53°31' W 003°42'2019.3
2017-Jan-19 13:33N 53°35' W 004°14'1919.4
2017-Jan-19 12:33N 53°34' W 004°47'51 7.0
2017-Jan-19 05:17N 53°21' W 006°10'1819.6
2017-Jan-19 04:20N 53°26' W 005°40'1720.9
2017-Jan-19 03:33N 53°30' W 005°13'2120.3
2017-Jan-19 02:32N 53°35' W 004°39'1919.4
2017-Jan-19 01:32N 53°36' W 004°07'1919.4
2017-Jan-19 00:33N 53°33' W 003°35'1717.5
2017-Jan-18 23:33N 53°31' W 003°06'5 4.8
2017-Jan-18 22:33N 53°27' W 003°01'0 0.4
2017-Jan-18 21:26N 53°27' W 003°01'0 0.0
2017-Jan-18 20:26N 53°27' W 003°01'0 0.0
2017-Jan-18 19:32N 53°27' W 003°01'0 0.0
2017-Jan-18 18:31N 53°27' W 003°01'0 0.0
2017-Jan-18 17:31N 53°27' W 003°01'0 0.4
2017-Jan-18 16:33N 53°27' W 003°01'4 3.9
2017-Jan-18 15:33N 53°30' W 003°06'1717.0
2017-Jan-18 14:33N 53°31' W 003°34'1717.1
2017-Jan-18 13:33N 53°33' W 004°03'1717.2
2017-Jan-18 12:33N 53°36' W 004°32'2018.1
2017-Jan-18 11:27N 53°32' W 005°04'1818.0
2017-Jan-18 10:26N 53°27' W 005°33'1717.6
2017-Jan-18 09:30N 53°21' W 005°59'7 1.7
2017-Jan-18 05:04N 53°21' W 006°12'814.8
2017-Jan-18 04:33N 53°22' W 005°59'8019.9
2017-Jan-18 00:32N 53°34' W 003°46'1818.8
2017-Jan-17 23:33N 53°31' W 003°16'10 9.8
2017-Jan-17 22:33N 53°27' W 003°01'0 0.0
2017-Jan-17 21:33N 53°27' W 003°01'0 0.4
2017-Jan-17 20:33N 53°27' W 003°01'0 0.0
2017-Jan-17 19:33N 53°27' W 003°01'0 0.0
2017-Jan-17 18:32N 53°27' W 003°01'0 0.0
2017-Jan-17 17:32N 53°27' W 003°01'0 0.5
2017-Jan-17 16:33N 53°27' W 003°01'7 7.1
2017-Jan-17 15:33N 53°32' W 003°10'1413.8
2017-Jan-17 14:33N 53°31' W 003°33'1717.2
2017-Jan-17 13:33N 53°33' W 004°02'6419.2
2017-Jan-17 10:12N 53°24' W 005°49'1117.4
2017-Jan-17 09:33N 53°20' W 006°07'4 0.8
2017-Jan-17 05:13N 53°21' W 006°13'6 8.4
2017-Jan-17 04:32N 53°21' W 006°03'8120.4
2017-Jan-17 00:33N 53°35' W 003°50'1918.9
2017-Jan-16 23:32N 53°32' W 003°18'1110.7
2017-Jan-16 22:33N 53°27' W 003°02'0 0.4
2017-Jan-16 21:33N 53°27' W 003°01'0 0.4
2017-Jan-16 20:31N 53°27' W 003°01'0 0.0
2017-Jan-16 19:31N 53°27' W 003°01'0 0.0
2017-Jan-16 18:33N 53°27' W 003°01'0 0.0
2017-Jan-16 17:33N 53°27' W 003°01'0 0.0
2017-Jan-16 16:30N 53°27' W 003°01'0 0.0
2017-Jan-16 15:29N 53°27' W 003°01'0 0.0
2017-Jan-16 14:29N 53°27' W 003°01'0 0.0
2017-Jan-16 13:31N 53°27' W 003°01'0 0.0
2017-Jan-16 12:31N 53°27' W 003°01'0 0.0
2017-Jan-16 11:33N 53°27' W 003°01'0 0.0
2017-Jan-16 10:33N 53°27' W 003°01'0 0.0
2017-Jan-16 09:33N 53°27' W 003°01'0 0.0
2017-Jan-16 08:29N 53°27' W 003°01'0 0.0
2017-Jan-16 07:31N 53°27' W 003°01'0 0.0
2017-Jan-16 06:31N 53°27' W 003°01'0 0.3
2017-Jan-16 05:33N 53°27' W 003°01'4 4.1
2017-Jan-16 04:34N 53°30' W 003°06'1515.0
2017-Jan-16 03:33N 53°31' W 003°31'1414.1
2017-Jan-16 02:33N 53°31' W 003°55'12 0.4
2017-Jan-14 23:33N 53°33' W 003°36'1616.1
2017-Jan-14 22:33N 53°32' W 003°09'7 6.7
2017-Jan-14 21:33N 53°27' W 003°01'0 0.4
2017-Jan-14 20:31N 53°27' W 003°01'0 0.0
2017-Jan-14 19:33N 53°27' W 003°01'0 0.0
2017-Jan-14 18:33N 53°27' W 003°01'0 0.0
2017-Jan-14 17:33N 53°27' W 003°01'0 0.3
2017-Jan-14 16:33N 53°27' W 003°01'4 4.4
2017-Jan-14 15:33N 53°30' W 003°06'1616.2
2017-Jan-14 14:33N 53°31' W 003°33'1716.6
2017-Jan-14 13:33N 53°33' W 004°01'18 1.3
2017-Jan-13 23:33N 53°33' W 003°31'1616.2
2017-Jan-13 22:33N 53°29' W 003°05'3 2.9
2017-Jan-13 21:33N 53°27' W 003°01'0 0.2
2017-Jan-13 20:31N 53°27' W 003°01'0 0.0
2017-Jan-13 19:33N 53°27' W 003°01'0 0.0
2017-Jan-13 18:33N 53°27' W 003°01'0 0.0
2017-Jan-13 17:32N 53°27' W 003°01'0 0.5
2017-Jan-13 16:33N 53°27' W 003°01'5 4.9
2017-Jan-13 15:33N 53°31' W 003°06'1615.7
2017-Jan-13 14:33N 53°31' W 003°33'1918.4
2017-Jan-13 13:33N 53°33' W 004°04'  
Track history (hours):
 
Tides and Currents Weather Stations Pressure Air Temp Water Temp Dewpoint Dewpoint Depression Visibility Wind Speed Wind Dir Waves Ship Positions

Norbank

Operator: P & O Ferries

Last reported at 2017-Jan-23 03:33 UTC. Time now 2017-Jan-23 04:26 UTC.
Position N 53°31' W 003°33'.

Length 167 m; draft 5.8 m.

Type: Ship (hazmat cat A). MMSI: 246213000.

Date/timePositionNaut miles runAvg speedWind from/ knotsBaromVisibWave heightAir tempDewpointWater temp
2017-Jan-23 03:33N 53°31' W 003°33'1414.0
2017-Jan-23 02:34N 53°33' W 003°56'1514.1
2017-Jan-23 01:27N 53°35' W 004°22'5714.7
2017-Jan-22 21:34N 53°22' W 005°56'7 0.5
2017-Jan-22 05:33N 53°21' W 006°08'8814.7
2017-Jan-21 23:33N 53°34' W 003°42'1717.1
2017-Jan-21 22:33N 53°31' W 003°13'8 8.4
2017-Jan-21 21:33N 53°27' W 003°01'0 0.4
2017-Jan-21 20:31N 53°27' W 003°01'0 0.0
2017-Jan-21 19:27N 53°27' W 003°01'0 0.0
2017-Jan-21 18:33N 53°27' W 003°01'1 0.6
2017-Jan-21 17:33N 53°27' W 003°01'8 8.2
2017-Jan-21 16:33N 53°31' W 003°13'1413.7
2017-Jan-21 15:33N 53°31' W 003°36'1514.8
2017-Jan-21 14:33N 53°33' W 004°00'15 0.9
2017-Jan-20 22:33N 53°33' W 003°36'1817.6
2017-Jan-20 21:33N 53°31' W 003°07'5 4.9
2017-Jan-20 20:33N 53°27' W 003°01'0 0.1
2017-Jan-20 19:33N 53°27' W 003°01'0 0.0
2017-Jan-20 18:30N 53°27' W 003°01'0 0.0
2017-Jan-20 17:33N 53°27' W 003°01'0 0.1
2017-Jan-20 16:33N 53°27' W 003°01'6 6.3
2017-Jan-20 15:33N 53°32' W 003°09'1919.4
2017-Jan-20 14:33N 53°31' W 003°41'1919.3
2017-Jan-20 13:33N 53°35' W 004°13'2019.6
2017-Jan-20 12:33N 53°36' W 004°46'1919.3
2017-Jan-20 11:33N 53°30' W 005°17'2218.7
2017-Jan-20 10:22N 53°23' W 005°53'7 1.1
2017-Jan-20 04:31N 53°21' W 006°03'1515.6
2017-Jan-20 03:32N 53°26' W 005°39'1715.7
2017-Jan-20 02:29N 53°31' W 005°13'1516.4
2017-Jan-20 01:33N 53°36' W 004°48'1717.2
2017-Jan-20 00:33N 53°38' W 004°20'1818.2
2017-Jan-19 23:33N 53°36' W 003°49'1918.7
2017-Jan-19 22:33N 53°32' W 003°18'1111.5
2017-Jan-19 21:33N 53°27' W 003°01'0 0.4
2017-Jan-19 20:33N 53°27' W 003°01'0 0.0
2017-Jan-19 19:31N 53°27' W 003°01'0 0.0
2017-Jan-19 18:31N 53°27' W 003°01'0 0.0
2017-Jan-19 17:33N 53°27' W 003°01'0 0.4
2017-Jan-19 16:33N 53°27' W 003°01'7 6.9
2017-Jan-19 15:33N 53°32' W 003°09'1919.4
2017-Jan-19 14:33N 53°31' W 003°42'2019.3
2017-Jan-19 13:33N 53°35' W 004°14'1919.4
2017-Jan-19 12:33N 53°34' W 004°47'51 7.0
2017-Jan-19 05:17N 53°21' W 006°10'1819.6
2017-Jan-19 04:20N 53°26' W 005°40'1720.9
2017-Jan-19 03:33N 53°30' W 005°13'2120.3
2017-Jan-19 02:32N 53°35' W 004°39'1919.4
2017-Jan-19 01:32N 53°36' W 004°07'1919.4
2017-Jan-19 00:33N 53°33' W 003°35'1717.5
2017-Jan-18 23:33N 53°31' W 003°06'5 4.8
2017-Jan-18 22:33N 53°27' W 003°01'0 0.4
2017-Jan-18 21:26N 53°27' W 003°01'0 0.0
2017-Jan-18 20:26N 53°27' W 003°01'0 0.0
2017-Jan-18 19:32N 53°27' W 003°01'0 0.0
2017-Jan-18 18:31N 53°27' W 003°01'0 0.0
2017-Jan-18 17:31N 53°27' W 003°01'0 0.4
2017-Jan-18 16:33N 53°27' W 003°01'4 3.9
2017-Jan-18 15:33N 53°30' W 003°06'1717.0
2017-Jan-18 14:33N 53°31' W 003°34'1717.1
2017-Jan-18 13:33N 53°33' W 004°03'1717.2
2017-Jan-18 12:33N 53°36' W 004°32'2018.1
2017-Jan-18 11:27N 53°32' W 005°04'1818.0
2017-Jan-18 10:26N 53°27' W 005°33'1717.6
2017-Jan-18 09:30N 53°21' W 005°59'7 1.7
2017-Jan-18 05:04N 53°21' W 006°12'814.8
2017-Jan-18 04:33N 53°22' W 005°59'8019.9
2017-Jan-18 00:32N 53°34' W 003°46'1818.8
2017-Jan-17 23:33N 53°31' W 003°16'10 9.8
2017-Jan-17 22:33N 53°27' W 003°01'0 0.0
2017-Jan-17 21:33N 53°27' W 003°01'0 0.4
2017-Jan-17 20:33N 53°27' W 003°01'0 0.0
2017-Jan-17 19:33N 53°27' W 003°01'0 0.0
2017-Jan-17 18:32N 53°27' W 003°01'0 0.0
2017-Jan-17 17:32N 53°27' W 003°01'0 0.5
2017-Jan-17 16:33N 53°27' W 003°01'7 7.1
2017-Jan-17 15:33N 53°32' W 003°10'1413.8
2017-Jan-17 14:33N 53°31' W 003°33'1717.2
2017-Jan-17 13:33N 53°33' W 004°02'6419.2
2017-Jan-17 10:12N 53°24' W 005°49'1117.4
2017-Jan-17 09:33N 53°20' W 006°07'4 0.8
2017-Jan-17 05:13N 53°21' W 006°13'6 8.4
2017-Jan-17 04:32N 53°21' W 006°03'8120.4
2017-Jan-17 00:33N 53°35' W 003°50'1918.9
2017-Jan-16 23:32N 53°32' W 003°18'1110.7
2017-Jan-16 22:33N 53°27' W 003°02'0 0.4
2017-Jan-16 21:33N 53°27' W 003°01'0 0.4
2017-Jan-16 20:31N 53°27' W 003°01'0 0.0
2017-Jan-16 19:31N 53°27' W 003°01'0 0.0
2017-Jan-16 18:33N 53°27' W 003°01'0 0.0
2017-Jan-16 17:33N 53°27' W 003°01'0 0.0
2017-Jan-16 16:30N 53°27' W 003°01'0 0.0
2017-Jan-16 15:29N 53°27' W 003°01'0 0.0
2017-Jan-16 14:29N 53°27' W 003°01'0 0.0
2017-Jan-16 13:31N 53°27' W 003°01'0 0.0
2017-Jan-16 12:31N 53°27' W 003°01'0 0.0
2017-Jan-16 11:33N 53°27' W 003°01'0 0.0
2017-Jan-16 10:33N 53°27' W 003°01'0 0.0
2017-Jan-16 09:33N 53°27' W 003°01'0 0.0
2017-Jan-16 08:29N 53°27' W 003°01'0 0.0
2017-Jan-16 07:31N 53°27' W 003°01'0 0.0
2017-Jan-16 06:31N 53°27' W 003°01'0 0.3
2017-Jan-16 05:33N 53°27' W 003°01'4 4.1
2017-Jan-16 04:34N 53°30' W 003°06'1515.0
2017-Jan-16 03:33N 53°31' W 003°31'1414.1
2017-Jan-16 02:33N 53°31' W 003°55'12 0.4
2017-Jan-14 23:33N 53°33' W 003°36'1616.1
2017-Jan-14 22:33N 53°32' W 003°09'7 6.7
2017-Jan-14 21:33N 53°27' W 003°01'0 0.4
2017-Jan-14 20:31N 53°27' W 003°01'0 0.0
2017-Jan-14 19:33N 53°27' W 003°01'0 0.0
2017-Jan-14 18:33N 53°27' W 003°01'0 0.0
2017-Jan-14 17:33N 53°27' W 003°01'0 0.3
2017-Jan-14 16:33N 53°27' W 003°01'4 4.4
2017-Jan-14 15:33N 53°30' W 003°06'1616.2
2017-Jan-14 14:33N 53°31' W 003°33'1716.6
2017-Jan-14 13:33N 53°33' W 004°01'18 1.3
2017-Jan-13 23:33N 53°33' W 003°31'1616.2
2017-Jan-13 22:33N 53°29' W 003°05'3 2.9
2017-Jan-13 21:33N 53°27' W 003°01'0 0.2
2017-Jan-13 20:31N 53°27' W 003°01'0 0.0
2017-Jan-13 19:33N 53°27' W 003°01'0 0.0
2017-Jan-13 18:33N 53°27' W 003°01'0 0.0
2017-Jan-13 17:32N 53°27' W 003°01'0 0.5
2017-Jan-13 16:33N 53°27' W 003°01'5 4.9
2017-Jan-13 15:33N 53°31' W 003°06'1615.7
2017-Jan-13 14:33N 53°31' W 003°33'1918.4
2017-Jan-13 13:33N 53°33' W 004°04'  

Dump ship's entire track history